Time;durP1;ratioP1;P1;durP2;ratioP2;P2;SDS_P1;SDS_P2;PMS_P1;PMS_P2;Temp;Humidity;BMP_temperature;BMP_pressure;BME280_temperature;BME280_humidity;BME280_pressure;Samples;Min_cycle;Max_cycle;Signal;HPM_P1;HPM_P2
2022/12/12 00:01:47;;;;;;;29.80;21.03;;;1.30;99.90;;;;;;5098696;28;20168;-41
2022/12/12 00:04:13;;;;;;;30.50;22.17;;;1.30;99.90;;;;;;5115939;28;20431;-43
2022/12/12 00:06:38;;;;;;;29.70;21.07;;;1.30;99.90;;;;;;5117150;28;20422;-43
2022/12/12 00:09:04;;;;;;;27.07;18.73;;;1.30;99.90;;;;;;5117759;28;20211;-42
2022/12/12 00:11:30;;;;;;;27.10;19.37;;;1.30;99.90;;;;;;5117283;28;20211;-42
2022/12/12 00:13:56;;;;;;;28.10;19.10;;;1.30;99.90;;;;;;5117774;28;20322;-41
2022/12/12 00:16:23;;;;;;;28.17;19.50;;;1.30;99.90;;;;;;5117884;28;20493;-41
2022/12/12 00:18:48;;;;;;;26.47;18.93;;;1.30;99.90;;;;;;5118051;28;20433;-41
2022/12/12 00:21:16;;;;;;;28.43;19.60;;;1.30;99.90;;;;;;5117478;28;20424;-41
2022/12/12 00:23:42;;;;;;;24.40;18.43;;;1.30;88.20;;;;;;5118484;28;20175;-42
2022/12/12 00:26:22;;;;;;;26.83;20.20;;;1.30;46.50;;;;;;5118062;28;20429;-42
2022/12/12 00:28:48;;;;;;;24.50;18.40;;;1.30;15.40;;;;;;5117948;28;20432;-45
2022/12/12 00:31:14;;;;;;;24.97;18.67;;;1.40;1.00;;;;;;5117826;28;20453;-43
2022/12/12 00:33:39;;;;;;;26.60;20.00;;;1.40;1.00;;;;;;5115805;28;20206;-42
2022/12/12 00:36:05;;;;;;;27.40;19.70;;;1.40;1.00;;;;;;5116171;28;20808;-41
2022/12/12 00:38:31;;;;;;;27.27;20.80;;;1.40;1.00;;;;;;5117324;28;20286;-43
2022/12/12 00:40:58;;;;;;;26.43;19.00;;;1.30;1.00;;;;;;5117877;28;20412;-42
2022/12/12 00:43:24;;;;;;;26.70;18.67;;;1.30;1.00;;;;;;5117467;28;20172;-41
2022/12/12 00:45:50;;;;;;;24.13;17.37;;;1.40;1.00;;;;;;5117780;28;20405;-41
2022/12/12 00:48:16;;;;;;;26.20;18.30;;;1.30;1.00;;;;;;5117967;28;20434;-42
2022/12/12 00:50:42;;;;;;;26.37;18.93;;;1.40;1.00;;;;;;5118237;28;20398;-44
2022/12/12 00:53:08;;;;;;;25.73;18.47;;;1.30;1.00;;;;;;5099739;28;20191;-41
2022/12/12 00:55:33;;;;;;;25.53;18.40;;;1.40;1.00;;;;;;5118261;28;20437;-41
2022/12/12 00:57:59;;;;;;;29.80;19.10;;;1.30;1.00;;;;;;5120926;28;20191;-42
2022/12/12 01:00:25;;;;;;;24.73;17.43;;;1.30;1.00;;;;;;5121595;28;20258;-44
2022/12/12 01:02:50;;;;;;;23.50;17.97;;;1.40;1.00;;;;;;5121130;28;20561;-43
2022/12/12 01:05:16;;;;;;;27.80;19.07;;;1.30;1.00;;;;;;5120288;28;20565;-41
2022/12/12 01:07:42;;;;;;;24.90;18.60;;;1.30;1.00;;;;;;5121646;28;20191;-41
2022/12/12 01:10:08;;;;;;;27.27;20.20;;;1.30;1.00;;;;;;5121208;28;20167;-41
2022/12/12 01:12:34;;;;;;;25.27;18.90;;;1.30;1.00;;;;;;5121357;28;20597;-48
2022/12/12 01:15:00;;;;;;;23.47;19.00;;;1.30;1.00;;;;;;5121209;28;20416;-42
2022/12/12 01:17:26;;;;;;;26.47;19.63;;;1.20;1.00;;;;;;5121343;28;20441;-47
2022/12/12 01:19:52;;;;;;;29.00;20.70;;;1.20;1.00;;;;;;5121651;28;20463;-42
2022/12/12 01:22:18;;;;;;;28.77;21.57;;;1.20;1.00;;;;;;5121829;28;20184;-43
2022/12/12 01:24:44;;;;;;;29.80;21.30;;;1.20;1.00;;;;;;5120546;28;20420;-43
2022/12/12 01:27:09;;;;;;;30.00;21.70;;;1.10;1.00;;;;;;5120560;28;20508;-41
2022/12/12 01:29:35;;;;;;;30.27;20.53;;;1.10;1.00;;;;;;5101819;28;20248;-41
2022/12/12 01:32:01;;;;;;;33.50;22.97;;;1.10;1.00;;;;;;5099728;28;20509;-41
2022/12/12 01:34:26;;;;;;;28.67;19.97;;;1.00;1.00;;;;;;5117523;28;20435;-42
2022/12/12 01:36:52;;;;;;;27.97;19.20;;;1.00;1.00;;;;;;5118133;28;20175;-42
2022/12/12 01:39:18;;;;;;;27.50;19.70;;;1.00;1.00;;;;;;5118500;28;20412;-41
2022/12/12 01:41:43;;;;;;;26.50;19.77;;;1.00;1.00;;;;;;5120081;28;20259;-41
2022/12/12 01:44:40;;;;;;;26.13;20.03;;;0.90;1.00;;;;;;5119807;28;20210;-42
2022/12/12 01:47:05;;;;;;;27.87;19.40;;;0.90;1.00;;;;;;5121210;28;20207;-42
2022/12/12 01:49:33;;;;;;;29.70;20.67;;;0.90;1.00;;;;;;5120924;28;20448;-42
2022/12/12 01:52:03;;;;;;;26.43;19.00;;;0.80;1.00;;;;;;5120800;28;20235;-41
2022/12/12 01:54:33;;;;;;;27.17;18.43;;;0.80;1.00;;;;;;5121358;28;20795;-42
2022/12/12 01:57:03;;;;;;;28.50;20.40;;;0.80;1.00;;;;;;5120994;28;20718;-41
2022/12/12 01:59:30;;;;;;;29.97;20.60;;;0.70;1.00;;;;;;5102554;28;20426;-43
2022/12/12 02:01:56;;;;;;;27.10;19.67;;;0.70;1.00;;;;;;5103365;28;20507;-43
2022/12/12 02:04:22;;;;;;;27.97;19.70;;;0.60;1.00;;;;;;5120901;28;20437;-41
2022/12/12 02:06:49;;;;;;;27.60;18.70;;;0.60;1.00;;;;;;5121152;28;20473;-42
2022/12/12 02:09:15;;;;;;;27.40;19.83;;;0.60;1.00;;;;;;5102665;28;20976;-41
2022/12/12 02:11:45;;;;;;;26.07;19.23;;;0.50;1.00;;;;;;5119937;28;20471;-43
2022/12/12 02:14:12;;;;;;;29.47;18.63;;;0.50;1.00;;;;;;5120349;28;20464;-41
2022/12/12 02:16:56;;;;;;;28.87;19.10;;;0.40;1.00;;;;;;5120534;28;20414;-42
2022/12/12 02:19:58;;;;;;;28.93;19.93;;;0.40;99.90;;;;;;5120385;28;20433;-41
2022/12/12 02:23:17;;;;;;;28.10;20.03;;;0.30;99.90;;;;;;5121186;28;20405;-41
2022/12/12 02:26:01;;;;;;;28.40;18.40;;;0.30;99.90;;;;;;5018540;28;20568;-41
2022/12/12 02:28:58;;;;;;;28.20;20.03;;;0.20;99.90;;;;;;5119954;28;20420;-41
2022/12/12 02:31:54;;;;;;;25.47;18.47;;;0.20;99.90;;;;;;5117506;28;20457;-41
2022/12/12 02:34:50;;;;;;;26.50;18.47;;;0.10;99.90;;;;;;5117924;28;20478;-41
2022/12/12 02:37:36;;;;;;;28.37;20.70;;;0.10;99.90;;;;;;5119302;28;20400;-41
2022/12/12 02:40:02;;;;;;;26.60;19.13;;;0.00;99.90;;;;;;5117559;28;20441;-41
2022/12/12 02:42:41;;;;;;;30.43;20.53;;;0.00;99.90;;;;;;5118310;28;20404;-43
2022/12/12 02:45:29;;;;;;;30.17;20.00;;;0.00;99.90;;;;;;5101694;28;20410;-41
2022/12/12 02:48:00;;;;;;;23.20;17.70;;;0.00;99.90;;;;;;5102310;28;20437;-41
2022/12/12 02:50:26;;;;;;;27.83;19.13;;;-0.10;99.90;;;;;;5101662;28;20504;-40
2022/12/12 02:52:52;;;;;;;31.70;19.83;;;-0.10;99.90;;;;;;5084146;28;20460;-41
2022/12/12 02:55:18;;;;;;;28.67;20.93;;;-0.10;99.90;;;;;;5119214;28;20704;-41
2022/12/12 02:57:44;;;;;;;27.10;18.47;;;-0.20;99.90;;;;;;5119805;28;20175;-41
2022/12/12 03:00:16;;;;;;;25.67;19.37;;;-0.20;99.90;;;;;;5100972;28;20436;-42
2022/12/12 03:08:47;;;;;;;26.67;19.67;;;-0.30;99.90;;;;;;5118855;28;20428;-41
2022/12/12 03:11:45;;;;;;;26.20;19.47;;;-0.40;99.90;;;;;;5119074;28;20535;-40
2022/12/12 03:14:23;;;;;;;30.90;20.60;;;-0.40;99.90;;;;;;5070869;28;20438;-40
2022/12/12 03:17:33;;;;;;;27.30;20.63;;;-0.50;99.90;;;;;;5080761;28;20425;-41
2022/12/12 03:20:37;;;;;;;29.13;21.23;;;-0.50;99.90;;;;;;5087380;28;20583;-40
2022/12/12 03:23:13;;;;;;;28.37;19.60;;;-0.50;99.90;;;;;;5053427;28;20471;-41
2022/12/12 03:26:02;;;;;;;28.57;20.07;;;-0.60;99.90;;;;;;5098810;28;20855;-40
2022/12/12 03:28:31;;;;;;;29.30;19.80;;;-0.60;99.90;;;;;;5098021;28;21270;-42
2022/12/12 03:31:02;;;;;;;30.80;21.20;;;-0.60;99.90;;;;;;5097012;28;20418;-41
2022/12/12 03:33:43;;;;;;;30.60;21.13;;;-0.60;99.90;;;;;;5080039;28;20429;-46
2022/12/12 03:36:33;;;;;;;29.03;19.67;;;-0.60;99.90;;;;;;5080254;28;20418;-43
2022/12/12 03:39:12;;;;;;;29.10;20.63;;;-0.60;1.00;;;;;;5080319;28;20429;-43
2022/12/12 03:41:41;;;;;;;30.47;22.33;;;-0.60;1.00;;;;;;5079747;28;20426;-41
2022/12/12 03:44:21;;;;;;;27.90;21.50;;;-0.60;1.00;;;;;;5097525;28;20480;-41
2022/12/12 03:47:19;;;;;;;31.40;21.60;;;-0.60;1.00;;;;;;5079974;28;20418;-40
2022/12/12 03:49:50;;;;;;;27.23;19.50;;;-0.60;1.00;;;;;;5085846;28;20894;-41
2022/12/12 03:52:30;;;;;;;31.17;20.70;;;-0.60;1.00;;;;;;5080363;28;20552;-40
2022/12/12 03:55:03;;;;;;;30.97;21.77;;;-0.60;1.00;;;;;;5079741;28;20414;-42
2022/12/12 03:57:37;;;;;;;32.00;23.23;;;-0.50;1.00;;;;;;5079036;28;20426;-43
2022/12/12 04:00:12;;;;;;;29.70;20.70;;;-0.60;1.00;;;;;;5061670;28;20879;-43
2022/12/12 04:03:16;;;;;;;36.20;21.73;;;-0.60;1.00;;;;;;5079126;28;20422;-40
2022/12/12 04:08:35;;;;;;;30.90;21.93;;;-0.60;1.00;;;;;;5097371;28;20417;-41
2022/12/12 04:14:00;;;;;;;30.80;21.20;;;-0.60;1.00;;;;;;5111817;28;20257;-42
2022/12/12 04:16:32;;;;;;;30.00;22.37;;;-0.70;1.00;;;;;;5115077;28;20409;-41
2022/12/12 04:19:07;;;;;;;31.47;22.20;;;-0.70;1.00;;;;;;5115482;28;20406;-41
2022/12/12 04:24:45;;;;;;;30.83;20.63;;;-0.80;1.00;;;;;;5114508;28;20681;-40
2022/12/12 04:27:19;;;;;;;30.33;22.53;;;-0.80;1.00;;;;;;5116799;28;20843;-42
2022/12/12 04:30:08;;;;;;;29.40;22.63;;;-0.80;1.00;;;;;;5117167;28;20454;-42
2022/12/12 04:32:36;;;;;;;34.50;21.43;;;-0.80;1.00;;;;;;5120554;28;20469;-41
2022/12/12 04:35:11;;;;;;;32.90;21.93;;;-0.90;1.00;;;;;;5122136;28;20406;-41
2022/12/12 04:37:47;;;;;;;28.20;19.70;;;-0.90;1.00;;;;;;5122633;28;20514;-41
2022/12/12 04:40:21;;;;;;;29.23;21.63;;;-0.90;1.00;;;;;;5121087;28;20501;-41
2022/12/12 04:43:02;;;;;;;28.73;22.37;;;-0.90;99.90;;;;;;5120607;28;20778;-41
2022/12/12 04:45:31;;;;;;;32.40;24.20;;;-1.00;99.90;;;;;;5119070;28;20677;-41
2022/12/12 04:47:57;;;;;;;30.00;21.70;;;-1.00;99.90;;;;;;5119639;28;20835;-41
2022/12/12 04:50:24;;;;;;;34.37;24.03;;;-1.00;99.90;;;;;;5119723;28;20591;-40
2022/12/12 04:52:52;;;;;;;30.60;23.00;;;-1.00;99.90;;;;;;5118606;28;20488;-41
2022/12/12 04:55:23;;;;;;;29.40;21.37;;;-1.00;99.90;;;;;;5100794;28;20824;-41
2022/12/12 04:57:52;;;;;;;32.30;22.70;;;-1.10;99.90;;;;;;5116361;28;20432;-43
2022/12/12 05:00:19;;;;;;;29.13;20.90;;;-1.10;99.90;;;;;;5117324;28;20443;-41
2022/12/12 05:02:44;;;;;;;32.73;21.90;;;-1.10;99.90;;;;;;5115624;28;20452;-41
2022/12/12 05:05:30;;;;;;;29.87;22.97;;;-1.10;99.90;;;;;;5115751;28;20437;-41
2022/12/12 05:08:05;;;;;;;30.20;21.97;;;-1.10;1.00;;;;;;5115747;28;20681;-44
2022/12/12 05:10:31;;;;;;;33.07;23.10;;;-1.10;1.00;;;;;;5099486;28;20497;-42
2022/12/12 05:12:58;;;;;;;29.00;21.20;;;-1.10;1.00;;;;;;5118702;28;20539;-41
2022/12/12 05:15:24;;;;;;;33.33;24.10;;;-1.10;1.00;;;;;;5118164;28;20258;-39
2022/12/12 05:18:00;;;;;;;31.47;22.10;;;-1.20;1.00;;;;;;5117011;28;20517;-41
2022/12/12 05:20:25;;;;;;;30.50;21.67;;;-1.20;1.00;;;;;;5118151;28;20696;-41
2022/12/12 05:22:51;;;;;;;33.27;23.37;;;-1.20;1.00;;;;;;5117494;28;20516;-42
2022/12/12 05:25:17;;;;;;;31.50;23.30;;;-1.20;1.00;;;;;;5118846;28;20171;-40
2022/12/12 05:27:42;;;;;;;40.20;24.67;;;-1.30;1.00;;;;;;5117886;28;20186;-40
2022/12/12 05:30:09;;;;;;;28.97;21.63;;;-1.30;1.00;;;;;;5117691;28;20176;-41
2022/12/12 05:32:34;;;;;;;31.77;21.90;;;-1.30;1.00;;;;;;5115120;28;20211;-42
2022/12/12 05:35:00;;;;;;;30.53;21.63;;;-1.30;1.00;;;;;;5118078;28;20857;-42
2022/12/12 05:37:27;;;;;;;29.77;20.60;;;-1.30;1.00;;;;;;5118457;28;20175;-40
2022/12/12 05:39:52;;;;;;;31.20;22.47;;;-1.30;1.00;;;;;;5117831;28;20201;-40
2022/12/12 05:42:18;;;;;;;27.67;20.80;;;-1.30;1.00;;;;;;5115618;28;20426;-40
2022/12/12 05:44:43;;;;;;;30.03;21.93;;;-1.30;1.00;;;;;;5112524;28;20547;-41
2022/12/12 05:47:09;;;;;;;30.47;21.30;;;-1.30;1.00;;;;;;5112562;28;20199;-40
2022/12/12 05:49:35;;;;;;;32.53;21.77;;;-1.30;1.00;;;;;;5111495;28;20558;-40
2022/12/12 05:52:00;;;;;;;38.10;24.10;;;-1.20;1.00;;;;;;5110471;28;20260;-41
2022/12/12 05:54:26;;;;;;;33.07;23.30;;;-1.20;1.00;;;;;;5109807;28;20175;-41
2022/12/12 05:56:52;;;;;;;33.23;23.97;;;-1.20;1.00;;;;;;5108881;28;20172;-40
2022/12/12 05:59:17;;;;;;;28.90;21.40;;;-1.20;1.00;;;;;;5111430;28;20267;-42
2022/12/12 06:01:43;;;;;;;31.70;21.13;;;-1.20;1.00;;;;;;5112298;28;20183;-41
2022/12/12 06:04:08;;;;;;;32.33;21.90;;;-1.20;1.00;;;;;;5112190;28;20218;-41
2022/12/12 06:06:34;;;;;;;28.77;21.40;;;-1.20;1.00;;;;;;5113638;28;20266;-41
2022/12/12 06:09:00;;;;;;;32.80;22.33;;;-1.10;1.00;;;;;;5114685;28;20218;-41
2022/12/12 06:11:25;;;;;;;32.63;22.67;;;-1.10;1.00;;;;;;5114866;28;20540;-40
2022/12/12 06:13:51;;;;;;;35.47;23.63;;;-1.10;1.00;;;;;;5114782;28;20223;-40
2022/12/12 06:16:18;;;;;;;30.07;21.50;;;-1.10;1.00;;;;;;5112808;28;20737;-42
2022/12/12 06:18:45;;;;;;;31.27;21.97;;;-1.10;1.00;;;;;;5112568;28;20261;-43
2022/12/12 06:21:11;;;;;;;34.57;23.80;;;-1.00;1.00;;;;;;5092169;28;20449;-42
2022/12/12 06:23:38;;;;;;;29.23;22.20;;;-1.00;1.00;;;;;;5111107;28;20426;-41
2022/12/12 06:26:05;;;;;;;29.80;22.73;;;-1.00;1.00;;;;;;5109035;28;20401;-41
2022/12/12 06:28:31;;;;;;;25.73;20.50;;;-1.00;5.50;;;;;;5092546;28;20421;-40
2022/12/12 06:30:56;;;;;;;29.37;21.17;;;-1.00;24.70;;;;;;5109169;28;20402;-42
2022/12/12 06:33:23;;;;;;;27.17;20.97;;;-0.90;27.30;;;;;;5107859;28;20175;-41
2022/12/12 06:36:25;;;;;;;30.77;22.07;;;-0.90;35.80;;;;;;5110875;28;20440;-40
2022/12/12 06:38:54;;;;;;;30.13;21.83;;;-0.90;56.70;;;;;;5076451;28;20244;-40
2022/12/12 06:41:21;;;;;;;30.93;22.90;;;-0.90;80.00;;;;;;5109058;28;20409;-41
2022/12/12 06:43:47;;;;;;;31.70;22.10;;;-0.90;99.90;;;;;;5110451;28;21104;-41
2022/12/12 06:46:15;;;;;;;31.40;22.33;;;-0.80;99.90;;;;;;5111231;28;20410;-42
2022/12/12 06:48:41;;;;;;;33.50;22.07;;;-0.80;99.90;;;;;;5110101;28;20176;-41
2022/12/12 06:51:09;;;;;;;33.77;22.47;;;-0.80;99.90;;;;;;5111854;28;20430;-40
2022/12/12 06:53:35;;;;;;;30.20;21.80;;;-0.80;99.90;;;;;;5111080;28;20653;-42
2022/12/12 06:56:08;;;;;;;28.13;22.83;;;-0.80;99.90;;;;;;5108101;28;20991;-41
2022/12/12 06:58:34;;;;;;;31.03;23.10;;;-0.80;99.90;;;;;;5108974;28;20506;-41
2022/12/12 07:01:00;;;;;;;30.73;22.70;;;-0.80;99.90;;;;;;5107711;28;20826;-42
2022/12/12 07:03:25;;;;;;;31.13;20.93;;;-0.80;99.90;;;;;;5108311;28;20421;-40
2022/12/12 07:05:51;;;;;;;33.93;22.83;;;-0.70;99.90;;;;;;5112485;28;20437;-41
2022/12/12 07:08:17;;;;;;;32.93;24.07;;;-0.70;99.90;;;;;;5112082;28;20172;-41
2022/12/12 07:10:43;;;;;;;31.90;22.70;;;-0.70;99.90;;;;;;5112447;28;20256;-41
2022/12/12 07:13:09;;;;;;;31.87;22.33;;;-0.70;99.90;;;;;;5110710;28;20637;-41
2022/12/12 07:15:41;;;;;;;31.03;23.10;;;-0.70;99.90;;;;;;5111183;28;20830;-43
2022/12/12 07:18:07;;;;;;;29.57;22.03;;;-0.60;99.90;;;;;;5112581;28;21078;-41
2022/12/12 07:20:32;;;;;;;33.93;22.93;;;-0.60;99.90;;;;;;5113462;28;20563;-42
2022/12/12 07:22:58;;;;;;;32.43;21.13;;;-0.60;99.90;;;;;;5110614;28;20325;-40
2022/12/12 07:25:23;;;;;;;31.40;22.70;;;-0.60;99.90;;;;;;5111836;28;20263;-42
2022/12/12 07:27:49;;;;;;;29.40;21.50;;;-0.60;99.90;;;;;;5111568;28;20194;-41
2022/12/12 07:30:15;;;;;;;29.20;21.67;;;-0.50;99.90;;;;;;5113622;28;20384;-40
2022/12/12 07:32:40;;;;;;;30.20;21.70;;;-0.50;97.20;;;;;;5111906;28;20298;-41
2022/12/12 07:35:06;;;;;;;26.63;19.43;;;-0.50;55.30;;;;;;5113953;28;20179;-41
2022/12/12 07:37:32;;;;;;;30.50;22.80;;;-0.50;63.70;;;;;;5109646;28;20368;-41
2022/12/12 07:39:57;;;;;;;31.07;21.77;;;-0.50;53.20;;;;;;5110153;28;20431;-44
2022/12/12 07:42:23;;;;;;;30.43;20.17;;;-0.50;44.60;;;;;;5110389;28;20515;-42
2022/12/12 07:44:49;;;;;;;25.33;19.50;;;-0.40;12.40;;;;;;5112377;28;20168;-40
2022/12/12 07:47:15;;;;;;;28.03;20.47;;;-0.40;1.00;;;;;;5096165;28;20477;-42
2022/12/12 07:49:40;;;;;;;26.97;19.60;;;-0.40;1.00;;;;;;5113499;28;20417;-41
2022/12/12 07:52:06;;;;;;;29.33;20.70;;;-0.40;1.00;;;;;;5114610;28;20200;-42
2022/12/12 07:54:31;;;;;;;30.93;21.33;;;-0.30;1.00;;;;;;5095183;28;20456;-42
2022/12/12 07:56:59;;;;;;;30.50;21.53;;;-0.30;1.00;;;;;;5112315;28;20246;-41
2022/12/12 07:59:24;;;;;;;22.03;10.90;;;-0.20;1.00;;;;;;5111507;28;20176;-41
2022/12/12 08:01:50;;;;;;;30.93;17.47;;;2.10;1.00;;;;;;5113546;28;20491;-41
2022/12/12 08:04:15;;;;;;;32.83;20.17;;;3.60;1.00;;;;;;5112769;28;20188;-41
2022/12/12 08:06:41;;;;;;;32.10;21.70;;;4.80;1.00;;;;;;5119950;28;20254;-42
2022/12/12 08:09:07;;;;;;;41.90;25.60;;;6.10;1.00;;;;;;5118251;28;20545;-41
2022/12/12 08:11:33;;;;;;;31.23;22.23;;;7.00;1.00;;;;;;5117839;28;20909;-41
2022/12/12 08:13:59;;;;;;;25.70;19.87;;;7.70;99.90;;;;;;5117349;28;20469;-43
2022/12/12 08:16:27;;;;;;;18.20;15.97;;;8.20;1.00;;;;;;5117346;28;20534;-44
2022/12/12 08:18:54;;;;;;;20.87;15.83;;;8.70;99.90;;;;;;5116567;28;20468;-42
2022/12/12 08:21:20;;;;;;;16.30;14.50;;;8.80;99.90;;;;;;5116687;28;20409;-44
2022/12/12 08:23:46;;;;;;;17.53;14.60;;;8.90;54.00;;;;;;5116818;28;20561;-43
2022/12/12 08:26:14;;;;;;;25.33;17.60;;;9.00;1.00;;;;;;5117640;28;20421;-44
2022/12/12 08:28:40;;;;;;;23.00;19.50;;;8.60;1.00;;;;;;5117318;28;20180;-44
2022/12/12 08:31:07;;;;;;;24.33;20.73;;;8.00;1.00;;;;;;5119174;28;20424;-44
2022/12/12 08:33:32;;;;;;;24.37;21.57;;;7.30;1.00;;;;;;5102846;28;20426;-43
2022/12/12 08:35:58;;;;;;;27.20;20.70;;;6.60;1.00;;;;;;5117679;28;20688;-44
2022/12/12 08:38:24;;;;;;;25.73;22.37;;;5.90;99.90;;;;;;5115742;28;20214;-43
2022/12/12 08:40:49;;;;;;;26.27;20.77;;;5.40;99.90;;;;;;5115840;28;20179;-44
2022/12/12 08:43:15;;;;;;;30.07;22.60;;;5.00;1.00;;;;;;5114045;28;20180;-45
2022/12/12 08:45:41;;;;;;;25.73;22.63;;;4.70;1.00;;;;;;5114417;28;20240;-45
2022/12/12 08:48:07;;;;;;;26.77;23.23;;;4.40;99.90;;;;;;5115913;28;20191;-44
2022/12/12 08:50:33;;;;;;;29.33;22.17;;;4.20;51.40;;;;;;5116272;28;20175;-44
2022/12/12 08:52:59;;;;;;;27.30;21.50;;;4.10;1.00;;;;;;5116139;28;20507;-43
2022/12/12 08:55:24;;;;;;;26.17;21.60;;;3.90;1.00;;;;;;5118778;28;20448;-44
2022/12/12 08:57:50;;;;;;;26.57;22.27;;;3.90;1.00;;;;;;5117469;28;20576;-45
2022/12/12 09:00:16;;;;;;;24.63;19.70;;;3.80;1.00;;;;;;5117981;28;20168;-43
2022/12/12 09:02:42;;;;;;;26.40;21.43;;;3.90;1.00;;;;;;5118040;28;20221;-43
2022/12/12 09:05:08;;;;;;;29.00;21.60;;;3.90;1.00;;;;;;5116342;28;20263;-45
2022/12/12 09:07:34;;;;;;;26.87;21.57;;;4.00;1.00;;;;;;5117772;28;20830;-45
2022/12/12 09:09:59;;;;;;;26.40;21.17;;;4.10;1.00;;;;;;5116684;28;20490;-45
2022/12/12 09:12:25;;;;;;;28.67;21.90;;;4.20;1.00;;;;;;5118273;28;20743;-45
2022/12/12 09:14:50;;;;;;;26.60;21.80;;;4.20;99.90;;;;;;5118855;28;20400;-44
2022/12/12 09:17:16;;;;;;;25.47;21.43;;;4.30;99.90;;;;;;5116924;28;20167;-44
2022/12/12 09:19:41;;;;;;;27.30;20.80;;;4.20;99.90;;;;;;5117413;28;20219;-43
2022/12/12 09:22:07;;;;;;;27.17;20.17;;;4.20;99.90;;;;;;5116689;28;20176;-43
2022/12/12 09:24:33;;;;;;;24.97;20.30;;;4.30;99.90;;;;;;5116940;28;20183;-44
2022/12/12 09:26:58;;;;;;;26.40;20.47;;;4.30;99.90;;;;;;5116525;28;20184;-43
2022/12/12 09:29:24;;;;;;;23.30;18.40;;;4.40;99.90;;;;;;5118105;28;20182;-43
2022/12/12 09:31:49;;;;;;;26.10;20.50;;;4.30;17.10;;;;;;5116951;28;20218;-44
2022/12/12 09:34:15;;;;;;;28.03;20.63;;;4.30;1.00;;;;;;5117536;28;20245;-47
2022/12/12 09:36:41;;;;;;;24.07;18.80;;;4.30;1.00;;;;;;5118903;28;20180;-43
2022/12/12 09:39:06;;;;;;;23.00;19.60;;;4.50;1.00;;;;;;5118807;28;20258;-45
2022/12/12 09:41:32;;;;;;;23.70;18.37;;;4.80;1.00;;;;;;5119311;28;20214;-45
2022/12/12 09:43:57;;;;;;;22.40;18.53;;;5.10;1.00;;;;;;5118214;28;20187;-44
2022/12/12 09:46:29;;;;;;;21.70;18.57;;;5.30;1.00;;;;;;5119234;28;20180;-44
2022/12/12 09:49:20;;;;;;;22.50;18.27;;;5.60;1.00;;;;;;5118244;28;20211;-45
2022/12/12 09:51:48;;;;;;;26.10;19.50;;;5.70;1.00;;;;;;5116306;28;20537;-45
2022/12/12 09:54:19;;;;;;;24.20;17.97;;;5.90;1.00;;;;;;5116224;28;20417;-45
2022/12/12 09:57:14;;;;;;;23.23;18.33;;;6.00;1.00;;;;;;5098522;28;20600;-43
2022/12/12 10:00:04;;;;;;;24.73;17.63;;;6.10;1.00;;;;;;5113418;28;20830;-43
2022/12/12 10:02:43;;;;;;;23.97;18.70;;;6.20;1.00;;;;;;5113761;28;20417;-44
2022/12/12 10:05:20;;;;;;;23.00;17.90;;;6.30;1.00;;;;;;5115434;28;20420;-45
2022/12/12 10:07:52;;;;;;;20.17;16.57;;;6.40;1.00;;;;;;5096775;28;20558;-51
2022/12/12 10:10:24;;;;;;;18.70;15.90;;;6.50;1.00;;;;;;5097579;28;20417;-45
2022/12/12 10:12:51;;;;;;;17.80;14.40;;;6.50;1.00;;;;;;5103421;28;20477;-46
2022/12/12 10:15:33;;;;;;;19.90;15.57;;;6.30;1.00;;;;;;5115897;28;20642;-44
2022/12/12 10:18:02;;;;;;;17.87;14.13;;;6.40;1.00;;;;;;5113762;28;20417;-44
2022/12/12 10:20:30;;;;;;;19.10;15.40;;;6.60;1.00;;;;;;5112839;28;20491;-43
2022/12/12 10:23:03;;;;;;;21.37;16.67;;;6.70;1.00;;;;;;5114305;28;20429;-46
2022/12/12 10:25:55;;;;;;;20.40;16.33;;;6.90;1.00;;;;;;5116100;28;20401;-42
2022/12/12 10:28:24;;;;;;;17.43;14.77;;;7.20;1.00;;;;;;5103272;28;20871;-44
2022/12/12 10:31:26;;;;;;;17.73;15.23;;;7.50;1.00;;;;;;5114452;28;20696;-46
2022/12/12 10:34:01;;;;;;;17.27;15.30;;;7.80;1.00;;;;;;5110431;28;20429;-45
2022/12/12 10:36:45;;;;;;;17.10;15.00;;;8.90;1.00;;;;;;5100544;28;20430;-48
2022/12/12 10:39:34;;;;;;;18.00;16.13;;;10.40;1.00;;;;;;5112538;28;20490;-42
2022/12/12 10:42:01;;;;;;;15.50;13.90;;;12.20;1.00;;;;;;5076961;28;20426;-43
2022/12/12 10:44:45;;;;;;;17.10;13.37;;;13.80;1.00;;;;;;5094073;28;20697;-47
2022/12/12 10:47:11;;;;;;;14.20;12.80;;;15.50;1.00;;;;;;5094592;28;20410;-47
2022/12/12 10:49:40;;;;;;;14.70;13.17;;;16.60;1.00;;;;;;5093994;28;20816;-44
2022/12/12 10:52:16;;;;;;;12.83;11.57;;;17.90;1.00;;;;;;5093884;28;21043;-47
2022/12/12 10:54:55;;;;;;;14.63;13.23;;;19.20;1.00;;;;;;5097684;28;20419;-45
2022/12/12 10:57:23;;;;;;;8.07;5.60;;;20.30;1.00;;;;;;5095160;28;20406;-45
2022/12/12 11:00:13;;;;;;;5.00;4.60;;;21.20;1.00;;;;;;5096724;28;20394;-45
2022/12/12 11:02:42;;;;;;;6.40;5.80;;;22.70;1.00;;;;;;5093597;28;20434;-45
2022/12/12 11:05:17;;;;;;;6.43;5.90;;;24.40;1.00;;;;;;5093187;28;20418;-47
2022/12/12 11:07:46;;;;;;;9.17;8.30;;;25.80;1.00;;;;;;5091550;28;20436;-47
2022/12/12 11:10:22;;;;;;;10.87;9.90;;;27.00;1.00;;;;;;5092016;28;20856;-50
2022/12/12 11:13:15;;;;;;;9.67;8.87;;;27.80;1.00;;;;;;5091208;28;20485;-46
2022/12/12 11:16:01;;;;;;;9.93;9.03;;;28.70;1.00;;;;;;5086678;28;20846;-46
2022/12/12 11:18:28;;;;;;;9.90;9.00;;;29.40;1.00;;;;;;5074809;28;20717;-44
2022/12/12 11:21:08;;;;;;;9.30;8.50;;;29.90;1.00;;;;;;5075236;28;20446;-44
2022/12/12 11:23:38;;;;;;;9.73;8.93;;;30.30;1.00;;;;;;5092548;28;20433;-45
2022/12/12 11:26:11;;;;;;;9.10;8.40;;;30.60;1.00;;;;;;5075040;28;20875;-44
2022/12/12 11:28:38;;;;;;;10.40;9.50;;;31.00;1.00;;;;;;5076339;28;20405;-45
2022/12/12 11:31:10;;;;;;;9.10;8.30;;;31.10;1.00;;;;;;5073781;28;20430;-44
2022/12/12 11:33:47;;;;;;;11.33;10.33;;;31.40;1.00;;;;;;5072211;28;20469;-44
2022/12/12 11:36:33;;;;;;;10.10;9.20;;;31.50;1.00;;;;;;5072245;28;20701;-45
2022/12/12 11:39:01;;;;;;;10.47;9.57;;;31.70;1.00;;;;;;5073384;28;20547;-43
2022/12/12 11:41:26;;;;;;;10.90;10.00;;;31.70;1.00;;;;;;5091980;28;20407;-46
2022/12/12 11:43:54;;;;;;;8.67;7.87;;;31.60;1.00;;;;;;5091636;28;20409;-46
2022/12/12 11:46:26;;;;;;;8.70;8.00;;;31.80;1.00;;;;;;5075066;28;20191;-47
2022/12/12 11:48:51;;;;;;;9.30;8.60;;;32.10;1.00;;;;;;5076493;28;20513;-47
2022/12/12 11:51:43;;;;;;;8.40;7.67;;;32.30;1.00;;;;;;5097182;28;20522;-46
2022/12/12 11:54:20;;;;;;;7.60;6.97;;;32.60;1.00;;;;;;5088062;28;20523;-48
2022/12/12 11:56:57;;;;;;;7.50;6.80;;;32.80;1.00;;;;;;5106555;28;20433;-47
2022/12/12 11:59:37;;;;;;;7.50;6.90;;;33.00;1.00;;;;;;5083064;28;20400;-49
2022/12/12 12:02:21;;;;;;;7.60;6.93;;;33.30;1.00;;;;;;5112354;28;20400;-48
2022/12/12 12:04:56;;;;;;;7.23;6.63;;;33.50;1.00;;;;;;5112910;28;20395;-49
2022/12/12 12:08:01;;;;;;;7.67;7.07;;;33.80;1.00;;;;;;5113072;28;20754;-48
2022/12/12 12:10:36;;;;;;;7.27;6.67;;;33.90;1.00;;;;;;5097647;28;20432;-47
2022/12/12 12:13:39;;;;;;;7.27;6.67;;;34.10;1.00;;;;;;5102586;28;20479;-49
2022/12/12 12:16:29;;;;;;;7.00;6.50;;;33.60;1.00;;;;;;5113367;28;20391;-48
2022/12/12 12:19:02;;;;;;;7.10;6.50;;;33.20;1.00;;;;;;5102914;28;20857;-47
2022/12/12 12:21:50;;;;;;;6.73;6.23;;;33.30;1.00;;;;;;5071670;28;20383;-47
2022/12/12 12:24:37;;;;;;;7.63;7.03;;;33.30;1.00;;;;;;5072676;28;20469;-46
2022/12/12 12:27:36;;;;;;;6.90;6.40;;;33.30;1.00;;;;;;5092506;28;20389;-47
2022/12/12 12:30:10;;;;;;;7.17;6.63;;;33.10;1.00;;;;;;5091366;28;20786;-47
2022/12/12 12:32:42;;;;;;;8.13;7.37;;;33.10;1.00;;;;;;5088210;28;20475;-46
2022/12/12 12:35:31;;;;;;;6.30;5.80;;;33.00;1.00;;;;;;5090253;28;20840;-46
2022/12/12 12:38:18;;;;;;;7.90;7.27;;;33.00;1.00;;;;;;5088243;28;20403;-48
2022/12/12 12:40:49;;;;;;;10.07;9.17;;;32.90;1.00;;;;;;5086535;28;20423;-46
2022/12/12 12:43:17;;;;;;;10.13;9.20;;;32.70;1.00;;;;;;5094937;28;20425;-46
2022/12/12 12:45:50;;;;;;;7.47;6.87;;;32.70;1.00;;;;;;5108607;28;20918;-46
2022/12/12 12:48:41;;;;;;;7.83;7.23;;;32.70;1.00;;;;;;5085393;28;20423;-46
2022/12/12 12:51:18;;;;;;;7.07;6.47;;;32.70;1.00;;;;;;5091227;28;20392;-45
2022/12/12 12:54:14;;;;;;;6.97;6.30;;;32.70;1.00;;;;;;5111754;28;20425;-47
2022/12/12 12:56:45;;;;;;;6.23;5.73;;;32.90;1.00;;;;;;5085945;28;20740;-46
2022/12/12 12:59:16;;;;;;;5.60;5.13;;;32.80;1.00;;;;;;5092836;28;20426;-46
2022/12/12 13:01:54;;;;;;;6.20;5.63;;;32.80;1.00;;;;;;5076260;28;20457;-47
2022/12/12 13:04:39;;;;;;;5.60;5.20;;;32.80;1.00;;;;;;5096430;28;20436;-46
2022/12/12 13:07:13;;;;;;;6.40;5.90;;;32.90;1.00;;;;;;5095952;28;20406;-48
2022/12/12 13:09:56;;;;;;;6.03;5.53;;;32.70;1.00;;;;;;5095127;28;20806;-46
2022/12/12 13:12:29;;;;;;;5.60;5.10;;;32.80;1.00;;;;;;5114262;28;20488;-47
2022/12/12 13:15:00;;;;;;;7.20;6.23;;;32.90;1.00;;;;;;5097090;28;20396;-46
2022/12/12 13:17:41;;;;;;;6.13;5.63;;;33.00;1.00;;;;;;5097621;28;20398;-46
2022/12/12 13:20:16;;;;;;;7.03;6.43;;;33.10;1.00;;;;;;5114600;28;20425;-47